Terminal Aerodrome Forecast
Issued by NWS

Home | Current Version | Previous Version | Text Only | Print | Product List | Glossary On
Versions: 1 2 3 4 5 6 7 8 9 10 11 12 13 14 15
000
FTUS44 KEPZ 042324
TAFLRU
TAF
KLRU 042324Z 0500/0524 26012KT P6SM VCTS SCT070CB BKN250
     FM050900 23007KT P6SM SCT090 SCT250
     FM051200 24005KT P6SM BKN250
     FM052000 23010KT P6SM VCTS SCT070CB BKN250=

USA.gov is the U.S. government's official web portal to all federal, state and local government web resources and services.